Time;durP1;ratioP1;P1;durP2;ratioP2;P2;SDS_P1;SDS_P2;PMS_P1;PMS_P2;Temp;Humidity;BMP_temperature;BMP_pressure;BME280_temperature;BME280_humidity;BME280_pressure;Samples;Min_cycle;Max_cycle;Signal;HPM_P1;HPM_P2
2022/03/27 00:00:39;;;;;;;8.05;6.00;;;;;;;13.12;67.44;103407.88;4931735;28;20047;-51
2022/03/27 00:03:13;;;;;;;7.72;5.80;;;;;;;13.20;67.33;103408.22;4935551;28;20055;-53
2022/03/27 00:05:38;;;;;;;8.35;5.72;;;;;;;12.82;67.97;103398.66;4936425;28;20110;-54
2022/03/27 00:08:04;;;;;;;8.65;5.97;;;;;;;13.04;67.65;103405.75;4932718;28;20042;-52
2022/03/27 00:11:23;;;;;;;8.77;5.93;;;;;;;12.94;67.90;103405.34;4927902;28;20606;-51
2022/03/27 00:13:15;;;;;;;8.73;6.10;;;;;;;12.99;67.81;103398.56;4931370;28;20487;-53
2022/03/27 00:15:40;;;;;;;9.85;6.07;;;;;;;13.01;67.75;103403.88;4937982;28;20039;-51
2022/03/27 00:18:06;;;;;;;8.48;5.93;;;;;;;13.10;67.33;103404.31;4939355;28;20455;-53
2022/03/27 00:20:31;;;;;;;9.90;6.50;;;;;;;13.07;67.75;103393.69;4923248;28;20883;-59
2022/03/27 00:22:57;;;;;;;8.82;6.25;;;;;;;12.85;68.11;103391.84;4939760;28;20113;-54
2022/03/27 00:25:22;;;;;;;10.45;6.35;;;;;;;13.08;67.42;103394.56;4935826;28;20490;-53
2022/03/27 00:27:47;;;;;;;9.52;6.05;;;;;;;13.08;67.35;103398.09;4939930;28;20045;-53
2022/03/27 00:30:13;;;;;;;9.60;6.35;;;;;;;13.10;67.37;103388.59;4936297;28;20107;-55
2022/03/27 00:32:38;;;;;;;7.88;6.10;;;;;;;13.22;66.80;103394.38;4928574;28;20049;-53
2022/03/27 00:35:06;;;;;;;8.20;5.88;;;;;;;13.15;66.97;103399.28;4936431;28;20814;-53
2022/03/27 00:37:33;;;;;;;7.95;5.88;;;;;;;13.09;67.16;103401.59;4933797;28;20038;-54
2022/03/27 00:39:58;;;;;;;8.15;5.80;;;;;;;12.97;67.16;103386.25;4939310;28;20049;-54
2022/03/27 00:42:24;;;;;;;7.57;5.68;;;;;;;12.97;67.44;103397.63;4942259;28;20079;-53
2022/03/27 00:44:50;;;;;;;6.88;5.35;;;;;;;13.05;67.17;103397.97;4930038;28;20598;-57
2022/03/27 00:47:15;;;;;;;8.73;5.85;;;;;;;13.01;67.06;103394.31;4939650;28;20102;-55
2022/03/27 00:49:40;;;;;;;8.45;5.63;;;;;;;13.04;66.57;103404.03;4931540;28;20042;-56
2022/03/27 00:52:06;;;;;;;9.27;6.20;;;;;;;12.96;66.78;103400.19;4936728;28;20070;-54
2022/03/27 00:54:31;;;;;;;9.35;6.60;;;;;;;12.53;67.82;103402.59;4935315;28;20053;-55
2022/03/27 00:56:57;;;;;;;8.88;6.57;;;;;;;12.66;67.84;103399.72;4930432;28;20330;-55
2022/03/27 00:59:22;;;;;;;8.35;6.35;;;;;;;12.68;67.36;103399.78;4939990;28;20051;-54
2022/03/27 01:01:47;;;;;;;9.68;6.47;;;;;;;12.66;67.36;103391.88;4931317;28;20506;-52
2022/03/27 01:04:13;;;;;;;10.35;6.55;;;;;;;12.62;67.47;103394.28;4933526;28;20136;-54
2022/03/27 01:06:41;;;;;;;8.93;6.45;;;;;;;12.68;67.47;103400.69;4934451;28;20669;-54
2022/03/27 01:11:55;;;;;;;10.30;6.97;;;;;;;12.59;67.23;103390.69;4937136;28;20054;-55
2022/03/27 01:14:33;;;;;;;11.18;6.97;;;;;;;12.39;67.87;103398.44;4938123;28;20038;-55
2022/03/27 01:17:00;;;;;;;10.77;6.90;;;;;;;12.50;67.51;103397.25;4934459;28;22401;-55
2022/03/27 01:19:26;;;;;;;10.43;6.38;;;;;;;12.33;67.22;103399.06;4936355;28;20101;-52
2022/03/27 01:21:51;;;;;;;9.70;6.53;;;;;;;12.34;67.14;103394.72;4937912;28;20035;-51
2022/03/27 01:24:18;;;;;;;10.20;6.55;;;;;;;12.30;67.48;103396.31;4939738;28;20053;-51
2022/03/27 01:26:44;;;;;;;10.32;7.10;;;;;;;12.32;67.53;103384.19;4935173;28;20058;-53
2022/03/27 01:29:09;;;;;;;9.52;6.57;;;;;;;12.14;67.97;103384.22;4943482;28;20046;-54
2022/03/27 01:31:36;;;;;;;10.40;6.78;;;;;;;12.24;67.82;103393.44;4933149;28;20092;-53
2022/03/27 01:34:02;;;;;;;10.25;6.97;;;;;;;12.08;68.13;103389.19;4942933;28;20039;-55
2022/03/27 01:36:39;;;;;;;9.90;6.68;;;;;;;12.04;67.98;103394.19;4936278;28;21778;-54
2022/03/27 01:39:10;;;;;;;11.55;7.07;;;;;;;11.97;68.46;103395.63;4942451;28;20050;-53
2022/03/27 01:41:36;;;;;;;10.35;6.88;;;;;;;12.04;67.97;103391.59;4940276;28;20481;-52
2022/03/27 01:44:03;;;;;;;10.23;6.55;;;;;;;11.92;68.58;103384.06;4940089;28;20608;-54
2022/03/27 01:46:33;;;;;;;11.23;7.10;;;;;;;11.89;68.50;103391.78;4927894;28;20058;-51
2022/03/27 01:49:03;;;;;;;10.93;6.63;;;;;;;11.90;68.42;103388.31;4931268;28;20126;-51
2022/03/27 01:51:29;;;;;;;13.00;7.30;;;;;;;11.67;69.08;103381.03;4937759;28;20682;-51
2022/03/27 01:53:55;;;;;;;11.88;7.35;;;;;;;11.75;69.28;103385.88;4933407;28;20054;-51
2022/03/27 01:56:21;;;;;;;10.52;6.50;;;;;;;11.73;69.04;103389.19;4937544;28;20523;-54
2022/03/27 01:58:46;;;;;;;10.90;6.85;;;;;;;11.84;69.10;103382.78;4931301;28;20184;-54
2022/03/27 02:01:13;;;;;;;11.20;6.90;;;;;;;11.87;68.73;103384.66;4936813;28;20104;-54
2022/03/27 02:03:38;;;;;;;11.68;7.30;;;;;;;11.96;68.61;103378.13;4937576;28;20869;-51
2022/03/27 02:06:05;;;;;;;11.02;7.18;;;;;;;11.82;68.78;103384.44;4939633;28;20030;-52
2022/03/27 02:08:34;;;;;;;10.88;7.00;;;;;;;11.60;68.85;103378.94;4940578;28;20105;-54
2022/03/27 02:11:00;;;;;;;9.82;6.35;;;;;;;11.42;69.84;103384.16;4936432;28;20471;-53
2022/03/27 02:13:26;;;;;;;11.05;6.90;;;;;;;11.64;69.06;103381.81;4932997;28;20054;-52
2022/03/27 02:15:58;;;;;;;10.82;6.82;;;;;;;11.67;69.07;103383.66;4938633;28;20054;-53
2022/03/27 02:18:32;;;;;;;11.43;6.95;;;;;;;11.63;68.77;103382.63;4939254;28;20489;-54
2022/03/27 02:21:00;;;;;;;11.52;6.68;;;;;;;11.58;68.50;103381.50;4936358;28;20473;-52
2022/03/27 02:23:26;;;;;;;11.25;6.85;;;;;;;11.54;68.98;103383.88;4938415;28;20414;-51
2022/03/27 02:25:52;;;;;;;10.63;7.18;;;;;;;11.72;68.40;103379.53;4936485;28;20871;-54
2022/03/27 02:28:18;;;;;;;10.55;6.60;;;;;;;11.71;68.14;103378.66;4939333;28;20109;-51
2022/03/27 02:30:44;;;;;;;9.40;6.20;;;;;;;11.76;67.90;103382.44;4932589;28;20058;-51
2022/03/27 02:33:09;;;;;;;8.82;5.85;;;;;;;11.31;69.07;103378.41;4934908;28;20049;-54
2022/03/27 02:35:35;;;;;;;10.88;7.05;;;;;;;11.32;68.88;103377.59;4938546;28;20156;-52
2022/03/27 02:38:04;;;;;;;11.20;6.97;;;;;;;11.04;70.20;103371.78;4933136;28;20154;-53
2022/03/27 02:40:40;;;;;;;13.02;7.60;;;;;;;11.26;70.06;103369.47;4936808;28;20136;-51
2022/03/27 02:43:06;;;;;;;12.52;7.47;;;;;;;11.16;70.48;103368.94;4943179;28;20061;-50
2022/03/27 02:45:32;;;;;;;14.43;8.30;;;;;;;11.12;70.68;103369.56;4931558;28;20051;-51
2022/03/27 02:47:58;;;;;;;12.05;7.65;;;;;;;11.45;69.77;103368.66;4941943;28;20062;-50
2022/03/27 02:50:26;;;;;;;11.63;7.18;;;;;;;11.26;69.67;103364.25;4933862;28;20578;-54
2022/03/27 02:52:52;;;;;;;11.18;6.95;;;;;;;11.26;69.73;103373.78;4930160;28;20081;-53
2022/03/27 02:55:19;;;;;;;12.15;6.97;;;;;;;11.22;69.85;103374.47;4935005;28;20047;-52
2022/03/27 02:57:45;;;;;;;12.00;7.43;;;;;;;11.16;69.90;103368.94;4937968;28;20344;-53
2022/03/27 03:00:11;;;;;;;12.57;7.63;;;;;;;11.24;69.53;103362.34;4942001;28;20421;-50
2022/03/27 03:02:36;;;;;;;11.45;7.00;;;;;;;11.28;69.79;103361.72;4925008;28;20125;-51
2022/03/27 03:05:04;;;;;;;12.10;7.50;;;;;;;11.29;69.66;103366.97;4941115;28;20118;-54
2022/03/27 03:07:30;;;;;;;11.30;7.15;;;;;;;11.30;69.34;103352.22;4935995;28;20055;-51
2022/03/27 03:09:56;;;;;;;11.57;7.35;;;;;;;11.45;68.95;103360.81;4940683;28;20431;-54
2022/03/27 03:12:21;;;;;;;11.30;7.45;;;;;;;11.31;69.62;103357.53;4938512;28;20517;-56
2022/03/27 03:14:47;;;;;;;13.23;7.63;;;;;;;11.25;69.58;103357.22;4921830;28;20621;-51
2022/03/27 03:17:12;;;;;;;12.40;7.97;;;;;;;11.15;69.24;103356.69;4943298;28;20224;-54
2022/03/27 03:19:38;;;;;;;11.85;7.85;;;;;;;11.32;69.11;103353.19;4933394;28;20066;-53
2022/03/27 03:22:04;;;;;;;13.98;7.88;;;;;;;11.34;69.19;103352.44;4941761;28;20100;-53
2022/03/27 03:24:36;;;;;;;12.32;7.72;;;;;;;11.34;68.86;103351.56;4934853;28;20546;-52
2022/03/27 03:27:02;;;;;;;13.30;8.27;;;;;;;11.19;68.73;103349.06;4929671;28;20317;-53
2022/03/27 03:29:27;;;;;;;11.55;8.00;;;;;;;11.04;69.69;103350.03;4942614;28;20046;-50
2022/03/27 03:31:52;;;;;;;11.75;7.60;;;;;;;11.26;69.40;103355.50;4919940;28;20085;-54
2022/03/27 03:34:18;;;;;;;12.77;8.07;;;;;;;11.09;69.31;103348.53;4940790;28;20051;-53
2022/03/27 03:36:44;;;;;;;12.77;7.80;;;;;;;11.08;68.86;103358.09;4927412;28;20054;-51
2022/03/27 03:39:10;;;;;;;12.82;8.20;;;;;;;11.11;68.90;103355.63;4934167;28;20461;-55
2022/03/27 03:41:36;;;;;;;13.05;7.90;;;;;;;10.98;69.78;103354.09;4937737;28;20779;-53
2022/03/27 03:44:01;;;;;;;11.25;7.20;;;;;;;11.14;68.93;103362.72;4937567;28;20050;-54
2022/03/27 03:46:28;;;;;;;11.07;7.45;;;;;;;11.04;68.42;103356.13;4932279;28;20121;-53
2022/03/27 03:48:53;;;;;;;10.80;7.63;;;;;;;11.10;68.58;103351.22;4921926;28;23037;-54
2022/03/27 03:51:19;;;;;;;12.15;7.43;;;;;;;11.15;68.49;103357.59;4941207;28;20058;-53
2022/03/27 03:53:44;;;;;;;12.52;7.40;;;;;;;10.82;69.03;103354.13;4937847;28;20043;-52
2022/03/27 03:56:11;;;;;;;12.07;7.15;;;;;;;10.98;68.81;103353.19;4941988;28;20513;-52
2022/03/27 03:58:36;;;;;;;11.35;7.10;;;;;;;10.86;69.12;103355.19;4931975;28;20035;-50
2022/03/27 04:01:03;;;;;;;14.07;8.18;;;;;;;10.63;70.05;103360.91;4929739;28;20062;-50
2022/03/27 04:03:31;;;;;;;14.60;8.30;;;;;;;10.79;69.18;103355.72;4940752;28;20047;-54
2022/03/27 04:05:57;;;;;;;13.10;7.97;;;;;;;10.68;69.97;103357.72;4933568;28;20129;-51
2022/03/27 04:08:22;;;;;;;16.38;8.85;;;;;;;10.58;70.11;103356.38;4941490;28;20336;-52
2022/03/27 04:10:48;;;;;;;15.27;8.95;;;;;;;10.69;70.09;103358.63;4929541;28;20133;-53
2022/03/27 04:13:14;;;;;;;15.25;8.90;;;;;;;10.61;70.54;103355.66;4935423;28;20042;-53
2022/03/27 04:15:39;;;;;;;15.45;9.48;;;;;;;10.81;69.65;103354.06;4941797;28;20093;-55
2022/03/27 04:18:05;;;;;;;16.40;9.63;;;;;;;10.64;69.93;103350.56;4913448;28;20084;-53
2022/03/27 04:20:31;;;;;;;16.70;9.73;;;;;;;10.69;70.47;103349.09;4938726;28;20431;-55
2022/03/27 04:22:56;;;;;;;16.58;9.77;;;;;;;10.83;69.78;103348.09;4952873;28;20046;-54
2022/03/27 04:25:22;;;;;;;16.73;9.50;;;;;;;10.74;69.76;103349.31;4931853;28;20477;-52
2022/03/27 04:27:47;;;;;;;15.82;9.15;;;;;;;10.73;69.43;103347.56;4938867;28;20368;-54
2022/03/27 04:30:13;;;;;;;14.15;8.70;;;;;;;10.89;69.15;103357.97;4932592;28;20383;-51
2022/03/27 04:32:39;;;;;;;14.43;9.05;;;;;;;11.04;68.58;103357.88;4931072;28;20426;-53
2022/03/27 04:35:07;;;;;;;15.70;9.18;;;;;;;11.11;68.49;103365.16;4942160;28;20057;-54
2022/03/27 04:37:38;;;;;;;15.90;9.45;;;;;;;11.09;68.33;103365.09;4939455;28;20054;-53
2022/03/27 04:40:06;;;;;;;11.32;7.10;;;;;;;11.06;67.90;103370.16;4938325;28;20603;-55
2022/03/27 04:42:31;;;;;;;11.23;6.90;;;;;;;11.05;66.86;103360.53;4938640;28;20475;-54
2022/03/27 04:44:56;;;;;;;10.27;6.70;;;;;;;10.91;66.87;103362.47;4932897;28;20047;-55
2022/03/27 04:47:22;;;;;;;10.68;6.60;;;;;;;11.01;66.59;103368.13;4936640;28;20170;-54
2022/03/27 04:49:47;;;;;;;10.70;7.03;;;;;;;10.67;67.54;103365.50;4938630;28;20158;-54
2022/03/27 04:52:13;;;;;;;10.82;6.82;;;;;;;10.64;67.79;103362.72;4934405;28;20046;-54
2022/03/27 04:54:39;;;;;;;11.60;6.53;;;;;;;10.76;67.11;103358.13;4925178;28;20053;-53
2022/03/27 04:57:06;;;;;;;10.48;6.97;;;;;;;10.81;67.01;103364.50;4942855;28;20059;-55
2022/03/27 04:59:32;;;;;;;9.63;6.55;;;;;;;10.86;66.64;103376.06;4942276;28;20210;-55
2022/03/27 05:01:58;;;;;;;9.40;6.40;;;;;;;10.92;67.10;103373.75;4931120;28;20621;-56
2022/03/27 05:04:24;;;;;;;10.75;6.63;;;;;;;10.89;67.09;103368.41;4934502;28;20042;-52
2022/03/27 05:06:49;;;;;;;11.10;7.03;;;;;;;10.92;66.91;103366.84;4927856;28;20038;-52
2022/03/27 05:09:14;;;;;;;10.02;6.70;;;;;;;10.49;67.97;103365.44;4935228;28;20038;-55
2022/03/27 05:11:40;;;;;;;11.77;6.90;;;;;;;10.56;68.06;103383.16;4943414;28;20049;-53
2022/03/27 05:14:05;;;;;;;9.50;6.63;;;;;;;10.52;68.16;103376.91;4939422;28;20148;-52
2022/03/27 05:16:30;;;;;;;9.80;6.28;;;;;;;10.49;67.89;103374.13;4939398;28;20349;-55
2022/03/27 05:18:56;;;;;;;10.10;6.28;;;;;;;10.55;67.81;103369.22;4938907;28;20055;-55
2022/03/27 05:21:25;;;;;;;10.30;6.57;;;;;;;10.53;68.39;103370.88;4943388;28;20702;-53
2022/03/27 05:23:51;;;;;;;10.40;6.57;;;;;;;10.62;67.31;103377.38;4939614;28;20051;-54
2022/03/27 05:26:16;;;;;;;10.73;6.43;;;;;;;10.43;67.57;103376.41;4940123;28;20161;-53
2022/03/27 05:28:41;;;;;;;9.50;6.63;;;;;;;10.36;67.77;103376.00;4933803;28;20062;-53
2022/03/27 05:31:09;;;;;;;11.00;6.88;;;;;;;10.42;67.36;103381.56;4938780;28;20047;-54
2022/03/27 05:33:38;;;;;;;10.15;6.57;;;;;;;10.45;67.15;103386.91;4941813;28;20065;-54
2022/03/27 05:36:05;;;;;;;9.98;6.53;;;;;;;10.24;67.66;103378.84;4939645;28;20148;-54
2022/03/27 05:38:30;;;;;;;11.10;7.28;;;;;;;10.21;67.79;103383.88;4941028;28;20408;-55
2022/03/27 05:40:56;;;;;;;11.57;7.30;;;;;;;10.37;67.33;103380.41;4935030;28;20053;-53
2022/03/27 05:43:21;;;;;;;10.88;7.25;;;;;;;10.31;67.61;103385.28;4932455;28;20110;-55
2022/03/27 05:45:47;;;;;;;11.27;7.30;;;;;;;10.07;68.28;103380.47;4939689;28;20066;-55
2022/03/27 05:48:12;;;;;;;12.07;7.57;;;;;;;10.03;67.90;103385.44;4937619;28;20109;-52
2022/03/27 05:50:38;;;;;;;10.95;7.60;;;;;;;10.11;67.53;103390.28;4932348;28;20117;-55
2022/03/27 05:53:03;;;;;;;10.88;6.72;;;;;;;10.25;67.37;103385.84;4940415;28;20039;-53
2022/03/27 05:55:29;;;;;;;11.10;7.10;;;;;;;10.06;67.76;103380.41;4932348;28;20221;-54
2022/03/27 05:57:54;;;;;;;12.43;7.20;;;;;;;10.26;66.80;103368.50;4940853;28;20442;-53
2022/03/27 06:00:20;;;;;;;11.07;7.25;;;;;;;10.22;66.70;103379.56;4939245;28;20050;-55
2022/03/27 06:02:46;;;;;;;11.35;7.38;;;;;;;10.28;67.27;103378.19;4932370;28;20671;-55
2022/03/27 06:05:12;;;;;;;9.85;6.75;;;;;;;10.30;66.61;103381.78;4941244;28;20062;-54
2022/03/27 06:07:42;;;;;;;9.88;6.75;;;;;;;10.38;66.19;103382.19;4928557;28;20097;-54
2022/03/27 06:10:08;;;;;;;8.82;6.28;;;;;;;10.53;65.49;103381.31;4942660;28;20054;-54
2022/03/27 06:12:34;;;;;;;9.95;6.55;;;;;;;10.72;65.08;103387.50;4932461;28;20047;-57
2022/03/27 06:14:59;;;;;;;9.70;6.57;;;;;;;10.65;64.25;103388.00;4937160;28;20083;-56
2022/03/27 06:17:25;;;;;;;9.50;6.47;;;;;;;10.66;64.11;103392.41;4939522;28;20051;-54
2022/03/27 06:19:50;;;;;;;10.38;6.53;;;;;;;10.60;65.08;103389.47;4939177;28;20486;-55
2022/03/27 06:22:15;;;;;;;8.88;6.10;;;;;;;10.71;64.56;103393.53;4936989;28;20428;-56
2022/03/27 06:24:40;;;;;;;9.23;6.30;;;;;;;10.91;64.31;103387.66;4926479;28;20499;-52
2022/03/27 06:27:06;;;;;;;8.85;6.47;;;;;;;10.92;62.90;103389.41;4937913;28;20047;-56
2022/03/27 06:29:31;;;;;;;8.60;6.13;;;;;;;11.42;61.96;103392.00;4935723;28;20089;-53
2022/03/27 06:31:56;;;;;;;8.85;6.18;;;;;;;11.60;60.60;103392.91;4935849;28;20251;-55
2022/03/27 06:34:26;;;;;;;9.27;5.78;;;;;;;12.29;58.58;103385.78;4942140;28;20070;-54
2022/03/27 06:36:51;;;;;;;9.98;5.80;;;;;;;12.89;57.39;103390.25;4934605;28;20043;-50
2022/03/27 06:39:17;;;;;;;7.22;5.32;;;;;;;13.47;54.65;103393.69;4940524;28;20533;-54
2022/03/27 06:41:42;;;;;;;7.32;5.30;;;;;;;14.37;51.96;103394.63;4932472;28;20056;-56
2022/03/27 06:44:07;;;;;;;7.55;5.18;;;;;;;14.48;50.03;103389.00;4937922;28;20061;-56
2022/03/27 06:46:40;;;;;;;7.25;5.38;;;;;;;14.28;50.05;103392.53;4936510;28;20055;-52
2022/03/27 06:49:05;;;;;;;8.18;4.93;;;;;;;14.53;50.67;103390.03;4940183;28;20058;-52
2022/03/27 06:51:31;;;;;;;7.82;5.60;;;;;;;14.58;50.76;103385.84;4931745;28;20047;-54
2022/03/27 06:53:57;;;;;;;7.72;5.82;;;;;;;15.13;48.83;103394.81;4936045;28;20040;-52
2022/03/27 06:56:23;;;;;;;6.68;5.40;;;;;;;14.72;49.27;103385.47;4941005;28;20458;-52
2022/03/27 06:58:48;;;;;;;8.75;6.00;;;;;;;14.75;49.17;103390.84;4932665;28;20047;-55
2022/03/27 07:03:58;;;;;;;7.78;6.20;;;;;;;15.21;49.62;103381.09;4935844;28;20046;-55
2022/03/27 07:06:23;;;;;;;8.27;6.18;;;;;;;15.71;47.21;103377.56;4935075;28;20460;-53
2022/03/27 07:08:48;;;;;;;9.45;6.97;;;;;;;15.92;45.70;103384.34;4929107;28;20048;-54
2022/03/27 07:11:14;;;;;;;10.05;7.35;;;;;;;16.59;44.28;103379.31;4943794;28;20066;-50
2022/03/27 07:13:41;;;;;;;8.88;6.97;;;;;;;17.22;43.61;103379.31;4939019;28;20623;-55
2022/03/27 07:16:07;;;;;;;10.38;7.70;;;;;;;16.46;44.23;103377.22;4921187;28;20683;-51
2022/03/27 07:18:32;;;;;;;9.20;7.20;;;;;;;16.16;45.05;103380.69;4933018;28;20047;-59
2022/03/27 07:20:59;;;;;;;10.85;7.28;;;;;;;16.44;45.31;103382.44;4933282;28;20051;-55
2022/03/27 07:23:24;;;;;;;12.55;7.47;;;;;;;16.76;43.55;103382.50;4942290;28;20055;-52
2022/03/27 07:25:53;;;;;;;9.45;7.35;;;;;;;17.23;42.95;103386.38;4937559;28;20050;-51
2022/03/27 07:28:19;;;;;;;10.02;7.40;;;;;;;16.80;43.00;103387.88;4934526;28;20034;-55
2022/03/27 07:30:48;;;;;;;9.52;6.80;;;;;;;16.58;42.84;103380.19;4931674;28;20047;-54
2022/03/27 07:33:15;;;;;;;9.18;7.07;;;;;;;16.38;42.87;103378.72;4925356;28;20510;-56
2022/03/27 07:35:41;;;;;;;7.65;5.97;;;;;;;16.85;42.28;103380.09;4937802;28;20443;-54
2022/03/27 07:38:07;;;;;;;7.72;5.88;;;;;;;16.98;41.31;103380.47;4937261;28;20330;-55
2022/03/27 07:40:33;;;;;;;7.53;5.80;;;;;;;16.58;42.08;103377.56;4936232;28;20339;-59
2022/03/27 07:42:59;;;;;;;8.18;6.07;;;;;;;16.79;41.56;103379.91;4927432;28;20089;-52
2022/03/27 07:45:27;;;;;;;8.65;6.38;;;;;;;15.17;45.10;103381.84;4932898;28;20494;-51
2022/03/27 07:47:54;;;;;;;9.43;7.28;;;;;;;15.07;46.09;103382.34;4934247;28;20396;-54
2022/03/27 07:50:21;;;;;;;9.65;7.28;;;;;;;14.31;47.69;103379.56;4931215;28;21024;-51
2022/03/27 07:52:47;;;;;;;9.73;7.20;;;;;;;14.12;48.77;103380.59;4928708;28;20484;-55
2022/03/27 07:55:15;;;;;;;10.82;7.22;;;;;;;13.78;49.23;103383.59;4931680;28;20043;-52
2022/03/27 07:57:42;;;;;;;9.63;6.85;;;;;;;13.55;49.04;103388.75;4938400;28;20605;-53
2022/03/27 08:00:10;;;;;;;10.07;7.20;;;;;;;13.72;50.15;103390.34;4938344;28;20031;-53
2022/03/27 08:02:36;;;;;;;9.93;6.68;;;;;;;13.69;49.30;103388.47;4929068;28;20066;-52
2022/03/27 08:05:02;;;;;;;9.63;6.82;;;;;;;13.53;49.77;103387.81;4939795;28;20039;-54
2022/03/27 08:07:27;;;;;;;8.95;6.25;;;;;;;13.73;47.16;103392.09;4934001;28;20349;-55
2022/03/27 08:09:53;;;;;;;9.63;6.38;;;;;;;13.74;46.16;103400.03;4935272;28;20420;-53
2022/03/27 08:12:21;;;;;;;8.18;5.80;;;;;;;13.74;45.26;103394.81;4934002;28;20074;-54
2022/03/27 08:14:48;;;;;;;8.30;5.50;;;;;;;13.65;44.20;103396.16;4931569;28;20569;-52
2022/03/27 08:17:14;;;;;;;11.50;5.95;;;;;;;13.40;44.65;103396.88;4937109;28;20615;-55
2022/03/27 08:19:39;;;;;;;9.30;5.50;;;;;;;13.56;44.51;103396.66;4936020;28;20049;-54
2022/03/27 08:22:04;;;;;;;9.40;6.03;;;;;;;13.46;46.56;103391.91;4931668;28;20050;-50
2022/03/27 08:24:30;;;;;;;9.90;5.97;;;;;;;13.81;46.24;103381.09;4936132;28;20201;-54
2022/03/27 08:26:55;;;;;;;8.68;6.03;;;;;;;13.90;45.58;103390.19;4922298;28;20212;-54
2022/03/27 08:29:25;;;;;;;8.95;6.30;;;;;;;13.45;45.92;103395.34;4943531;28;20058;-51
2022/03/27 08:31:52;;;;;;;11.43;6.45;;;;;;;13.59;47.03;103393.28;4919306;28;20386;-52
2022/03/27 08:34:19;;;;;;;11.30;6.10;;;;;;;13.71;46.32;103394.69;4939201;28;20043;-50
2022/03/27 08:36:47;;;;;;;9.55;6.20;;;;;;;13.50;45.63;103398.13;4934562;28;20117;-54
2022/03/27 08:39:13;;;;;;;9.10;6.20;;;;;;;13.70;47.75;103392.91;4936988;28;20046;-52
2022/03/27 08:41:46;;;;;;;10.02;6.10;;;;;;;13.85;46.20;103391.69;4929489;28;20044;-53
2022/03/27 08:44:14;;;;;;;9.68;6.35;;;;;;;13.80;46.43;103395.03;4933921;28;20062;-54
2022/03/27 08:46:41;;;;;;;9.25;6.22;;;;;;;13.47;46.72;103388.44;4919897;28;20035;-52
2022/03/27 08:49:35;;;;;;;9.70;6.32;;;;;;;13.39;47.00;103387.22;4935307;28;20043;-50
2022/03/27 08:52:01;;;;;;;11.18;5.97;;;;;;;13.72;45.24;103385.97;4906739;28;20043;-52
2022/03/27 08:54:34;;;;;;;9.20;5.97;;;;;;;13.92;45.62;103384.16;4936667;28;20037;-54
2022/03/27 08:57:24;;;;;;;8.83;6.10;;;;;;;13.94;45.34;103381.59;4953219;28;20487;-51
2022/03/27 08:59:52;;;;;;;9.57;6.22;;;;;;;14.22;46.56;103384.44;4941525;28;20429;-53
2022/03/27 09:02:19;;;;;;;8.38;5.40;;;;;;;14.14;42.65;103375.41;4937739;28;20732;-51
2022/03/27 09:04:45;;;;;;;7.90;5.55;;;;;;;14.26;43.48;103378.50;4936080;28;20061;-53
2022/03/27 09:07:10;;;;;;;9.13;5.68;;;;;;;13.91;43.77;103386.69;4931924;28;20087;-52
2022/03/27 09:09:36;;;;;;;10.13;5.50;;;;;;;14.25;42.29;103381.06;4939518;28;20051;-53
2022/03/27 09:12:05;;;;;;;8.77;5.40;;;;;;;14.37;42.33;103376.25;4941360;28;20487;-56
2022/03/27 09:14:32;;;;;;;7.95;5.60;;;;;;;13.75;44.06;103375.63;4936911;28;20413;-54
2022/03/27 09:17:07;;;;;;;9.00;6.00;;;;;;;13.76;44.91;103373.91;4940398;28;20059;-53
2022/03/27 09:19:43;;;;;;;9.75;5.40;;;;;;;14.41;43.48;103370.31;4932132;28;21152;-52
2022/03/27 09:22:17;;;;;;;8.88;5.90;;;;;;;14.34;43.36;103377.03;4942850;28;20055;-53
2022/03/27 09:24:47;;;;;;;9.00;5.88;;;;;;;14.42;42.26;103370.38;4932355;28;20043;-53
2022/03/27 09:27:13;;;;;;;8.07;5.30;;;;;;;14.51;42.81;103373.38;4941533;28;20353;-53
2022/03/27 09:30:09;;;;;;;8.63;5.68;;;;;;;14.54;42.20;103365.59;4943710;28;20198;-52
2022/03/27 09:32:37;;;;;;;8.80;5.63;;;;;;;14.51;42.05;103375.09;4923533;28;20169;-50
2022/03/27 09:35:06;;;;;;;8.13;5.20;;;;;;;14.75;42.13;103367.22;4932786;28;20046;-52
2022/03/27 09:37:35;;;;;;;7.53;5.40;;;;;;;14.48;41.00;103367.09;4938174;28;20486;-52
2022/03/27 09:40:02;;;;;;;6.75;5.20;;;;;;;14.60;42.03;103363.19;4941441;28;20080;-54
2022/03/27 09:42:31;;;;;;;6.35;4.68;;;;;;;14.55;40.84;103359.50;4930977;28;20051;-52
2022/03/27 09:45:28;;;;;;;7.63;5.35;;;;;;;14.88;40.89;103369.44;4933214;28;20050;-55
2022/03/27 09:48:07;;;;;;;8.60;5.20;;;;;;;15.25;40.77;103366.31;4897845;28;20513;-50
2022/03/27 09:50:40;;;;;;;10.38;5.18;;;;;;;15.24;39.96;103362.81;4931216;28;20042;-53
2022/03/27 09:53:27;;;;;;;6.97;5.17;;;;;;;15.23;40.38;103362.75;4934943;28;20051;-51
2022/03/27 09:55:58;;;;;;;8.18;5.35;;;;;;;14.93;41.29;103366.13;4938665;28;20548;-54
2022/03/27 09:58:40;;;;;;;8.38;5.35;;;;;;;15.20;42.50;103366.16;4934143;28;20392;-51
2022/03/27 10:01:16;;;;;;;8.75;5.53;;;;;;;15.41;41.37;103359.00;4941724;28;20574;-54
2022/03/27 10:04:00;;;;;;;7.65;5.10;;;;;;;15.52;40.29;103361.09;4932714;28;20415;-52
2022/03/27 10:06:28;;;;;;;7.27;5.03;;;;;;;16.05;41.03;103354.91;4939993;28;20119;-52
2022/03/27 10:08:53;;;;;;;7.25;5.47;;;;;;;15.94;39.39;103365.13;4934153;28;20985;-52
2022/03/27 10:11:22;;;;;;;10.20;5.38;;;;;;;15.70;39.89;103356.47;4931571;28;20066;-53
2022/03/27 10:13:49;;;;;;;8.93;5.63;;;;;;;15.75;39.78;103357.50;4939399;28;20079;-54
2022/03/27 10:16:15;;;;;;;8.20;5.60;;;;;;;15.70;39.97;103364.34;4935721;28;20054;-54
2022/03/27 10:18:42;;;;;;;8.23;5.13;;;;;;;15.92;40.93;103350.16;4934591;28;20070;-51
2022/03/27 10:21:07;;;;;;;9.30;5.57;;;;;;;15.99;40.31;103337.19;4933821;28;20047;-57
2022/03/27 10:23:35;;;;;;;8.75;5.45;;;;;;;15.91;40.14;103346.63;4937468;28;20463;-54
2022/03/27 10:26:05;;;;;;;8.80;5.15;;;;;;;15.63;38.38;103350.09;4939483;28;20078;-52
2022/03/27 10:28:33;;;;;;;8.23;4.45;;;;;;;15.60;39.02;103341.25;4952495;28;20046;-53
2022/03/27 10:30:59;;;;;;;7.13;4.45;;;;;;;15.66;37.06;103346.69;4938668;28;20049;-51
2022/03/27 10:33:27;;;;;;;8.48;4.50;;;;;;;15.57;39.13;103341.13;4934040;28;20505;-53
2022/03/27 10:35:59;;;;;;;6.78;4.70;;;;;;;15.75;37.23;103344.34;4935656;28;20059;-52
2022/03/27 10:38:34;;;;;;;6.85;4.70;;;;;;;15.82;37.74;103336.69;4941988;28;20038;-53
2022/03/27 10:41:12;;;;;;;9.27;5.28;;;;;;;15.74;39.07;103332.94;4942952;28;20676;-54
2022/03/27 10:44:05;;;;;;;8.35;5.25;;;;;;;15.90;38.85;103330.78;4926094;28;20070;-54
2022/03/27 10:46:31;;;;;;;8.25;5.05;;;;;;;15.79;37.49;103328.72;4938528;28;20545;-53
2022/03/27 10:49:17;;;;;;;8.55;5.20;;;;;;;16.11;38.43;103324.41;4934630;28;20129;-52
2022/03/27 10:51:44;;;;;;;8.02;5.57;;;;;;;16.04;39.05;103329.47;4937766;28;20461;-53
2022/03/27 10:54:15;;;;;;;9.25;4.80;;;;;;;15.70;37.97;103325.78;4935810;28;20538;-52
2022/03/27 10:56:43;;;;;;;8.57;5.25;;;;;;;16.08;38.41;103315.53;4928173;28;20047;-53
2022/03/27 10:59:24;;;;;;;9.00;5.60;;;;;;;15.72;37.81;103329.38;4936065;28;20364;-53
2022/03/27 11:01:59;;;;;;;9.98;5.40;;;;;;;16.11;37.65;103312.97;4934679;28;20454;-53
2022/03/27 11:04:43;;;;;;;8.35;4.75;;;;;;;16.49;35.90;103309.72;4932967;28;20053;-53
2022/03/27 11:07:19;;;;;;;7.82;4.90;;;;;;;16.41;35.54;103308.59;4939223;28;20495;-52
2022/03/27 11:09:45;;;;;;;7.38;4.93;;;;;;;16.29;35.92;103307.34;4938209;28;20042;-51
2022/03/27 11:12:25;;;;;;;7.90;4.55;;;;;;;16.30;34.24;103302.16;4944524;28;20043;-50
2022/03/27 11:15:04;;;;;;;7.68;4.35;;;;;;;16.67;33.92;103308.47;4917462;28;20274;-51
2022/03/27 11:17:42;;;;;;;7.55;4.40;;;;;;;16.97;34.39;103296.09;4929786;28;20054;-54
2022/03/27 11:20:20;;;;;;;10.77;5.20;;;;;;;17.08;34.05;103302.53;4937456;28;20105;-54
2022/03/27 11:22:53;;;;;;;8.82;3.80;;;;;;;16.97;32.25;103302.25;4934251;28;20499;-53
2022/03/27 11:25:28;;;;;;;6.55;3.58;;;;;;;17.17;32.04;103300.13;4925293;28;20267;-54
2022/03/27 11:28:01;;;;;;;6.00;3.80;;;;;;;16.82;30.92;103296.59;4924477;28;20639;-51
2022/03/27 11:30:26;;;;;;;7.35;3.80;;;;;;;16.95;31.34;103297.81;4938035;28;20078;-51